sensor_id;sensor_type;location;lat;lon;timestamp;P1;durP1;ratioP1;P2;durP2;ratioP2
1775;SDS011;885;42.626;23.200;2022-12-26T00:01:58;1.00;;;0.90;;
1775;SDS011;885;42.626;23.200;2022-12-26T00:04:25;1.20;;;1.10;;
1775;SDS011;885;42.626;23.200;2022-12-26T00:06:53;1.20;;;1.10;;
1775;SDS011;885;42.626;23.200;2022-12-26T00:09:20;1.67;;;1.17;;
1775;SDS011;885;42.626;23.200;2022-12-26T00:11:47;1.70;;;1.00;;
1775;SDS011;885;42.626;23.200;2022-12-26T00:14:14;1.20;;;1.07;;
1775;SDS011;885;42.626;23.200;2022-12-26T00:16:43;1.87;;;1.27;;
1775;SDS011;885;42.626;23.200;2022-12-26T00:19:11;1.13;;;1.00;;
1775;SDS011;885;42.626;23.200;2022-12-26T00:21:38;1.00;;;0.90;;
1775;SDS011;885;42.626;23.200;2022-12-26T00:24:08;3.63;;;1.57;;
1775;SDS011;885;42.626;23.200;2022-12-26T00:26:37;1.53;;;1.27;;
1775;SDS011;885;42.626;23.200;2022-12-26T00:29:03;1.87;;;1.63;;
1775;SDS011;885;42.626;23.200;2022-12-26T00:31:31;4.70;;;4.17;;
1775;SDS011;885;42.626;23.200;2022-12-26T00:34:00;1.23;;;1.13;;
1775;SDS011;885;42.626;23.200;2022-12-26T00:36:28;2.37;;;1.17;;
1775;SDS011;885;42.626;23.200;2022-12-26T00:38:56;2.27;;;1.73;;
1775;SDS011;885;42.626;23.200;2022-12-26T00:41:25;1.10;;;1.00;;
1775;SDS011;885;42.626;23.200;2022-12-26T00:43:52;2.87;;;2.67;;
1775;SDS011;885;42.626;23.200;2022-12-26T00:46:20;3.10;;;2.40;;
1775;SDS011;885;42.626;23.200;2022-12-26T00:48:46;2.77;;;2.37;;
1775;SDS011;885;42.626;23.200;2022-12-26T00:51:13;1.47;;;1.37;;
1775;SDS011;885;42.626;23.200;2022-12-26T00:53:41;2.73;;;1.47;;
1775;SDS011;885;42.626;23.200;2022-12-26T00:56:08;1.80;;;1.70;;
1775;SDS011;885;42.626;23.200;2022-12-26T00:58:36;2.13;;;2.03;;
1775;SDS011;885;42.626;23.200;2022-12-26T01:01:05;3.57;;;1.60;;
1775;SDS011;885;42.626;23.200;2022-12-26T01:03:33;2.50;;;2.17;;
1775;SDS011;885;42.626;23.200;2022-12-26T01:06:00;3.30;;;1.30;;
1775;SDS011;885;42.626;23.200;2022-12-26T01:08:28;1.20;;;1.10;;
1775;SDS011;885;42.626;23.200;2022-12-26T01:10:54;1.20;;;1.10;;
1775;SDS011;885;42.626;23.200;2022-12-26T01:13:24;1.30;;;1.20;;
1775;SDS011;885;42.626;23.200;2022-12-26T01:15:52;1.50;;;1.40;;
1775;SDS011;885;42.626;23.200;2022-12-26T01:18:19;2.40;;;1.57;;
1775;SDS011;885;42.626;23.200;2022-12-26T01:20:47;2.40;;;2.20;;
1775;SDS011;885;42.626;23.200;2022-12-26T01:23:15;6.03;;;5.53;;
1775;SDS011;885;42.626;23.200;2022-12-26T01:25:42;3.33;;;3.03;;
1775;SDS011;885;42.626;23.200;2022-12-26T01:28:09;6.17;;;4.70;;
1775;SDS011;885;42.626;23.200;2022-12-26T01:30:36;2.60;;;2.40;;
1775;SDS011;885;42.626;23.200;2022-12-26T01:33:04;1.93;;;1.37;;
1775;SDS011;885;42.626;23.200;2022-12-26T01:35:31;1.93;;;1.27;;
1775;SDS011;885;42.626;23.200;2022-12-26T01:37:58;1.47;;;1.13;;
1775;SDS011;885;42.626;23.200;2022-12-26T01:40:25;4.93;;;1.30;;
1775;SDS011;885;42.626;23.200;2022-12-26T01:42:52;1.37;;;1.27;;
1775;SDS011;885;42.626;23.200;2022-12-26T01:45:22;1.30;;;1.00;;
1775;SDS011;885;42.626;23.200;2022-12-26T01:47:53;1.37;;;0.90;;
1775;SDS011;885;42.626;23.200;2022-12-26T01:50:28;1.20;;;1.10;;
1775;SDS011;885;42.626;23.200;2022-12-26T01:53:02;1.10;;;1.00;;
1775;SDS011;885;42.626;23.200;2022-12-26T01:55:33;1.70;;;1.00;;
1775;SDS011;885;42.626;23.200;2022-12-26T01:58:01;1.43;;;1.20;;
1775;SDS011;885;42.626;23.200;2022-12-26T02:00:32;1.50;;;1.00;;
1775;SDS011;885;42.626;23.200;2022-12-26T02:03:02;1.00;;;0.90;;
1775;SDS011;885;42.626;23.200;2022-12-26T02:05:50;2.07;;;1.50;;
1775;SDS011;885;42.626;23.200;2022-12-26T02:08:20;1.10;;;1.00;;
1775;SDS011;885;42.626;23.200;2022-12-26T02:10:54;1.10;;;1.00;;
1775;SDS011;885;42.626;23.200;2022-12-26T02:13:25;1.10;;;1.00;;
1775;SDS011;885;42.626;23.200;2022-12-26T02:15:54;1.30;;;1.20;;
1775;SDS011;885;42.626;23.200;2022-12-26T02:18:21;1.50;;;1.30;;
1775;SDS011;885;42.626;23.200;2022-12-26T02:20:50;1.60;;;1.00;;
1775;SDS011;885;42.626;23.200;2022-12-26T02:23:30;3.10;;;1.20;;
1775;SDS011;885;42.626;23.200;2022-12-26T02:26:36;2.30;;;1.20;;
1775;SDS011;885;42.626;23.200;2022-12-26T02:32:38;1.40;;;1.30;;
1775;SDS011;885;42.626;23.200;2022-12-26T02:35:35;1.23;;;1.10;;
1775;SDS011;885;42.626;23.200;2022-12-26T02:38:16;2.50;;;1.03;;
1775;SDS011;885;42.626;23.200;2022-12-26T02:40:55;2.23;;;1.37;;
1775;SDS011;885;42.626;23.200;2022-12-26T02:43:36;1.30;;;1.10;;
1775;SDS011;885;42.626;23.200;2022-12-26T02:46:11;1.13;;;1.03;;
1775;SDS011;885;42.626;23.200;2022-12-26T02:49:08;1.23;;;1.13;;
1775;SDS011;885;42.626;23.200;2022-12-26T02:51:45;1.47;;;1.37;;
1775;SDS011;885;42.626;23.200;2022-12-26T02:54:39;1.50;;;1.20;;
1775;SDS011;885;42.626;23.200;2022-12-26T02:57:29;1.30;;;1.00;;
1775;SDS011;885;42.626;23.200;2022-12-26T03:00:20;1.43;;;1.27;;
1775;SDS011;885;42.626;23.200;2022-12-26T03:03:06;1.50;;;1.00;;
1775;SDS011;885;42.626;23.200;2022-12-26T03:05:56;1.20;;;1.10;;
1775;SDS011;885;42.626;23.200;2022-12-26T03:08:45;1.20;;;1.10;;
1775;SDS011;885;42.626;23.200;2022-12-26T03:11:33;1.10;;;1.00;;
1775;SDS011;885;42.626;23.200;2022-12-26T03:14:23;2.33;;;1.10;;
1775;SDS011;885;42.626;23.200;2022-12-26T03:16:54;1.27;;;1.10;;
1775;SDS011;885;42.626;23.200;2022-12-26T03:19:43;1.10;;;1.00;;
1775;SDS011;885;42.626;23.200;2022-12-26T03:22:26;1.10;;;1.00;;
1775;SDS011;885;42.626;23.200;2022-12-26T03:24:57;1.63;;;1.20;;
1775;SDS011;885;42.626;23.200;2022-12-26T03:27:44;1.20;;;0.90;;
1775;SDS011;885;42.626;23.200;2022-12-26T03:30:11;2.37;;;1.20;;
1775;SDS011;885;42.626;23.200;2022-12-26T03:32:56;1.50;;;1.00;;
1775;SDS011;885;42.626;23.200;2022-12-26T03:35:24;1.90;;;1.20;;
1775;SDS011;885;42.626;23.200;2022-12-26T03:37:55;2.27;;;1.40;;
1775;SDS011;885;42.626;23.200;2022-12-26T03:40:41;2.93;;;2.07;;
1775;SDS011;885;42.626;23.200;2022-12-26T03:43:38;3.13;;;2.70;;
1775;SDS011;885;42.626;23.200;2022-12-26T03:46:35;5.03;;;4.23;;
1775;SDS011;885;42.626;23.200;2022-12-26T03:49:28;4.20;;;3.80;;
1775;SDS011;885;42.626;23.200;2022-12-26T03:52:18;4.27;;;2.40;;
1775;SDS011;885;42.626;23.200;2022-12-26T03:55:12;5.23;;;3.37;;
1775;SDS011;885;42.626;23.200;2022-12-26T03:58:03;3.53;;;3.23;;
1775;SDS011;885;42.626;23.200;2022-12-26T04:00:50;4.60;;;3.43;;
1775;SDS011;885;42.626;23.200;2022-12-26T04:03:37;4.23;;;3.33;;
1775;SDS011;885;42.626;23.200;2022-12-26T04:06:25;4.60;;;3.10;;
1775;SDS011;885;42.626;23.200;2022-12-26T04:09:16;3.93;;;2.90;;
1775;SDS011;885;42.626;23.200;2022-12-26T04:12:05;1.93;;;1.83;;
1775;SDS011;885;42.626;23.200;2022-12-26T04:14:57;2.13;;;1.47;;
1775;SDS011;885;42.626;23.200;2022-12-26T04:17:47;2.17;;;1.97;;
1775;SDS011;885;42.626;23.200;2022-12-26T04:20:39;2.20;;;2.00;;
1775;SDS011;885;42.626;23.200;2022-12-26T04:23:11;6.47;;;3.77;;
1775;SDS011;885;42.626;23.200;2022-12-26T04:26:06;5.50;;;4.70;;
1775;SDS011;885;42.626;23.200;2022-12-26T04:28:57;5.50;;;4.33;;
1775;SDS011;885;42.626;23.200;2022-12-26T04:31:42;5.60;;;4.97;;
1775;SDS011;885;42.626;23.200;2022-12-26T04:34:31;8.77;;;7.87;;
1775;SDS011;885;42.626;23.200;2022-12-26T04:37:23;8.33;;;7.50;;
1775;SDS011;885;42.626;23.200;2022-12-26T04:40:10;7.17;;;6.47;;
1775;SDS011;885;42.626;23.200;2022-12-26T04:43:00;6.13;;;3.70;;
1775;SDS011;885;42.626;23.200;2022-12-26T04:45:47;3.40;;;3.10;;
1775;SDS011;885;42.626;23.200;2022-12-26T04:48:14;2.47;;;2.00;;
1775;SDS011;885;42.626;23.200;2022-12-26T04:50:59;1.80;;;1.70;;
1775;SDS011;885;42.626;23.200;2022-12-26T04:53:25;2.20;;;1.47;;
1775;SDS011;885;42.626;23.200;2022-12-26T04:55:52;2.13;;;1.50;;
1775;SDS011;885;42.626;23.200;2022-12-26T04:58:19;1.50;;;1.37;;
1775;SDS011;885;42.626;23.200;2022-12-26T05:00:49;1.47;;;1.37;;
1775;SDS011;885;42.626;23.200;2022-12-26T05:03:16;3.70;;;1.80;;
1775;SDS011;885;42.626;23.200;2022-12-26T05:06:01;1.60;;;1.50;;
1775;SDS011;885;42.626;23.200;2022-12-26T05:08:45;2.63;;;2.27;;
1775;SDS011;885;42.626;23.200;2022-12-26T05:11:31;1.63;;;1.53;;
1775;SDS011;885;42.626;23.200;2022-12-26T05:13:59;2.00;;;1.70;;
1775;SDS011;885;42.626;23.200;2022-12-26T05:16:28;1.93;;;1.77;;
1775;SDS011;885;42.626;23.200;2022-12-26T05:19:12;3.10;;;1.97;;
1775;SDS011;885;42.626;23.200;2022-12-26T05:21:58;1.60;;;1.50;;
1775;SDS011;885;42.626;23.200;2022-12-26T05:24:43;2.60;;;1.83;;
1775;SDS011;885;42.626;23.200;2022-12-26T05:27:29;1.40;;;1.23;;
1775;SDS011;885;42.626;23.200;2022-12-26T05:30:18;3.00;;;1.70;;
1775;SDS011;885;42.626;23.200;2022-12-26T05:32:46;2.07;;;1.57;;
1775;SDS011;885;42.626;23.200;2022-12-26T05:35:30;2.90;;;1.70;;
1775;SDS011;885;42.626;23.200;2022-12-26T05:37:58;3.27;;;1.70;;
1775;SDS011;885;42.626;23.200;2022-12-26T05:40:25;1.80;;;1.70;;
1775;SDS011;885;42.626;23.200;2022-12-26T05:42:51;5.37;;;2.00;;
1775;SDS011;885;42.626;23.200;2022-12-26T05:45:18;2.90;;;1.90;;
1775;SDS011;885;42.626;23.200;2022-12-26T05:47:46;3.67;;;1.73;;
1775;SDS011;885;42.626;23.200;2022-12-26T05:50:13;2.10;;;1.43;;
1775;SDS011;885;42.626;23.200;2022-12-26T05:52:41;2.10;;;1.67;;
1775;SDS011;885;42.626;23.200;2022-12-26T05:55:08;2.00;;;1.53;;
1775;SDS011;885;42.626;23.200;2022-12-26T05:57:35;1.80;;;1.70;;
1775;SDS011;885;42.626;23.200;2022-12-26T06:00:02;2.10;;;1.60;;
1775;SDS011;885;42.626;23.200;2022-12-26T06:02:29;1.70;;;1.40;;
1775;SDS011;885;42.626;23.200;2022-12-26T06:04:57;1.60;;;1.30;;
1775;SDS011;885;42.626;23.200;2022-12-26T06:07:24;2.60;;;1.63;;
1775;SDS011;885;42.626;23.200;2022-12-26T06:09:51;2.07;;;1.87;;
1775;SDS011;885;42.626;23.200;2022-12-26T06:12:18;1.70;;;1.47;;
1775;SDS011;885;42.626;23.200;2022-12-26T06:14:44;2.07;;;1.57;;
1775;SDS011;885;42.626;23.200;2022-12-26T06:17:11;2.67;;;2.43;;
1775;SDS011;885;42.626;23.200;2022-12-26T06:19:38;4.13;;;2.17;;
1775;SDS011;885;42.626;23.200;2022-12-26T06:22:06;2.47;;;1.90;;
1775;SDS011;885;42.626;23.200;2022-12-26T06:24:33;3.20;;;1.60;;
1775;SDS011;885;42.626;23.200;2022-12-26T06:27:00;2.00;;;1.77;;
1775;SDS011;885;42.626;23.200;2022-12-26T06:29:27;2.73;;;2.10;;
1775;SDS011;885;42.626;23.200;2022-12-26T06:31:54;1.87;;;1.60;;
1775;SDS011;885;42.626;23.200;2022-12-26T06:34:21;2.20;;;2.07;;
1775;SDS011;885;42.626;23.200;2022-12-26T06:36:47;1.70;;;1.60;;
1775;SDS011;885;42.626;23.200;2022-12-26T06:39:16;1.20;;;1.10;;
1775;SDS011;885;42.626;23.200;2022-12-26T06:41:43;2.87;;;1.40;;
1775;SDS011;885;42.626;23.200;2022-12-26T06:44:10;2.30;;;1.40;;
1775;SDS011;885;42.626;23.200;2022-12-26T06:46:38;2.07;;;1.87;;
1775;SDS011;885;42.626;23.200;2022-12-26T06:49:04;2.40;;;1.67;;
1775;SDS011;885;42.626;23.200;2022-12-26T06:51:31;2.13;;;1.50;;
1775;SDS011;885;42.626;23.200;2022-12-26T06:53:59;2.40;;;1.87;;
1775;SDS011;885;42.626;23.200;2022-12-26T06:56:29;3.47;;;1.43;;
1775;SDS011;885;42.626;23.200;2022-12-26T06:58:57;2.03;;;1.37;;
1775;SDS011;885;42.626;23.200;2022-12-26T07:01:25;1.70;;;1.60;;
1775;SDS011;885;42.626;23.200;2022-12-26T07:03:53;4.63;;;1.70;;
1775;SDS011;885;42.626;23.200;2022-12-26T07:06:21;1.13;;;1.03;;
1775;SDS011;885;42.626;23.200;2022-12-26T07:08:49;1.67;;;1.30;;
1775;SDS011;885;42.626;23.200;2022-12-26T07:11:17;1.40;;;1.30;;
1775;SDS011;885;42.626;23.200;2022-12-26T07:13:47;6.60;;;1.73;;
1775;SDS011;885;42.626;23.200;2022-12-26T07:16:14;1.40;;;1.30;;
1775;SDS011;885;42.626;23.200;2022-12-26T07:18:41;1.77;;;1.67;;
1775;SDS011;885;42.626;23.200;2022-12-26T07:21:08;2.47;;;1.70;;
1775;SDS011;885;42.626;23.200;2022-12-26T07:23:37;2.93;;;1.67;;
1775;SDS011;885;42.626;23.200;2022-12-26T07:26:04;2.10;;;1.67;;
1775;SDS011;885;42.626;23.200;2022-12-26T07:28:31;2.00;;;1.80;;
1775;SDS011;885;42.626;23.200;2022-12-26T07:30:59;2.80;;;1.60;;
1775;SDS011;885;42.626;23.200;2022-12-26T07:33:26;1.90;;;1.53;;
1775;SDS011;885;42.626;23.200;2022-12-26T07:35:53;1.93;;;1.60;;
1775;SDS011;885;42.626;23.200;2022-12-26T07:38:24;1.97;;;1.40;;
1775;SDS011;885;42.626;23.200;2022-12-26T07:40:53;1.87;;;1.57;;
1775;SDS011;885;42.626;23.200;2022-12-26T07:43:20;3.10;;;1.70;;
1775;SDS011;885;42.626;23.200;2022-12-26T07:45:47;2.87;;;1.50;;
1775;SDS011;885;42.626;23.200;2022-12-26T07:48:15;5.93;;;1.80;;
1775;SDS011;885;42.626;23.200;2022-12-26T07:50:43;2.27;;;1.63;;
1775;SDS011;885;42.626;23.200;2022-12-26T07:53:11;1.70;;;1.47;;
1775;SDS011;885;42.626;23.200;2022-12-26T07:55:38;2.33;;;1.87;;
1775;SDS011;885;42.626;23.200;2022-12-26T07:58:05;3.23;;;1.67;;
1775;SDS011;885;42.626;23.200;2022-12-26T08:00:32;2.20;;;1.77;;
1775;SDS011;885;42.626;23.200;2022-12-26T08:02:59;2.70;;;1.60;;
1775;SDS011;885;42.626;23.200;2022-12-26T08:05:27;2.20;;;1.90;;
1775;SDS011;885;42.626;23.200;2022-12-26T08:07:54;2.17;;;1.80;;
1775;SDS011;885;42.626;23.200;2022-12-26T08:10:20;2.40;;;1.80;;
1775;SDS011;885;42.626;23.200;2022-12-26T08:12:47;2.53;;;1.70;;
1775;SDS011;885;42.626;23.200;2022-12-26T08:15:14;2.50;;;2.30;;
1775;SDS011;885;42.626;23.200;2022-12-26T08:17:42;4.50;;;2.10;;
1775;SDS011;885;42.626;23.200;2022-12-26T08:20:08;1.97;;;1.77;;
1775;SDS011;885;42.626;23.200;2022-12-26T08:22:37;3.47;;;2.17;;
1775;SDS011;885;42.626;23.200;2022-12-26T08:25:04;4.70;;;4.20;;
1775;SDS011;885;42.626;23.200;2022-12-26T08:27:32;4.50;;;4.00;;
1775;SDS011;885;42.626;23.200;2022-12-26T08:29:59;4.83;;;3.60;;
1775;SDS011;885;42.626;23.200;2022-12-26T08:32:26;4.90;;;3.60;;
1775;SDS011;885;42.626;23.200;2022-12-26T08:34:52;3.23;;;2.40;;
1775;SDS011;885;42.626;23.200;2022-12-26T08:37:19;10.63;;;9.57;;
1775;SDS011;885;42.626;23.200;2022-12-26T08:39:49;8.37;;;5.27;;
1775;SDS011;885;42.626;23.200;2022-12-26T08:42:16;7.87;;;6.30;;
1775;SDS011;885;42.626;23.200;2022-12-26T08:44:45;6.20;;;5.63;;
1775;SDS011;885;42.626;23.200;2022-12-26T08:47:12;6.17;;;5.03;;
1775;SDS011;885;42.626;23.200;2022-12-26T08:49:39;8.33;;;7.53;;
1775;SDS011;885;42.626;23.200;2022-12-26T08:52:06;10.70;;;9.07;;
1775;SDS011;885;42.626;23.200;2022-12-26T08:54:33;7.63;;;6.73;;
1775;SDS011;885;42.626;23.200;2022-12-26T08:57:03;5.93;;;4.20;;
1775;SDS011;885;42.626;23.200;2022-12-26T08:59:30;6.77;;;5.67;;
1775;SDS011;885;42.626;23.200;2022-12-26T09:01:57;11.80;;;10.63;;
1775;SDS011;885;42.626;23.200;2022-12-26T09:04:24;13.30;;;11.90;;
1775;SDS011;885;42.626;23.200;2022-12-26T09:06:50;5.83;;;4.80;;
1775;SDS011;885;42.626;23.200;2022-12-26T09:09:17;9.40;;;5.97;;
1775;SDS011;885;42.626;23.200;2022-12-26T09:11:44;4.97;;;4.40;;
1775;SDS011;885;42.626;23.200;2022-12-26T09:14:13;4.70;;;3.30;;
1775;SDS011;885;42.626;23.200;2022-12-26T09:16:40;5.20;;;4.10;;
1775;SDS011;885;42.626;23.200;2022-12-26T09:19:11;85.93;;;52.27;;
1775;SDS011;885;42.626;23.200;2022-12-26T09:21:41;10.60;;;8.30;;
1775;SDS011;885;42.626;23.200;2022-12-26T09:24:09;256.43;;;122.07;;
1775;SDS011;885;42.626;23.200;2022-12-26T09:26:37;390.87;;;189.17;;
1775;SDS011;885;42.626;23.200;2022-12-26T09:29:04;143.30;;;69.70;;
1775;SDS011;885;42.626;23.200;2022-12-26T09:31:33;31.20;;;16.03;;
1775;SDS011;885;42.626;23.200;2022-12-26T09:34:01;78.30;;;39.07;;
1775;SDS011;885;42.626;23.200;2022-12-26T09:36:30;27.10;;;16.23;;
1775;SDS011;885;42.626;23.200;2022-12-26T09:38:58;11.43;;;9.10;;
1775;SDS011;885;42.626;23.200;2022-12-26T09:41:31;18.20;;;10.67;;
1775;SDS011;885;42.626;23.200;2022-12-26T09:44:08;41.27;;;24.30;;
1775;SDS011;885;42.626;23.200;2022-12-26T09:46:45;31.00;;;18.50;;
1775;SDS011;885;42.626;23.200;2022-12-26T09:49:19;64.93;;;34.43;;
1775;SDS011;885;42.626;23.200;2022-12-26T09:51:48;79.90;;;38.90;;
1775;SDS011;885;42.626;23.200;2022-12-26T09:54:20;24.83;;;14.30;;
1775;SDS011;885;42.626;23.200;2022-12-26T09:56:53;33.17;;;18.00;;
1775;SDS011;885;42.626;23.200;2022-12-26T09:59:21;110.00;;;51.17;;
1775;SDS011;885;42.626;23.200;2022-12-26T10:01:51;156.20;;;66.23;;
1775;SDS011;885;42.626;23.200;2022-12-26T10:04:21;124.70;;;56.43;;
1775;SDS011;885;42.626;23.200;2022-12-26T10:06:51;16.13;;;14.37;;
1775;SDS011;885;42.626;23.200;2022-12-26T10:12:22;16.40;;;10.87;;
1775;SDS011;885;42.626;23.200;2022-12-26T10:15:02;16.23;;;11.17;;
1775;SDS011;885;42.626;23.200;2022-12-26T10:17:41;20.53;;;13.00;;
1775;SDS011;885;42.626;23.200;2022-12-26T10:20:20;21.83;;;14.17;;
1775;SDS011;885;42.626;23.200;2022-12-26T10:22:57;17.40;;;11.97;;
1775;SDS011;885;42.626;23.200;2022-12-26T10:25:41;28.13;;;16.33;;
1775;SDS011;885;42.626;23.200;2022-12-26T10:28:14;23.43;;;14.23;;
1775;SDS011;885;42.626;23.200;2022-12-26T10:30:45;25.03;;;16.47;;
1775;SDS011;885;42.626;23.200;2022-12-26T10:33:19;36.37;;;20.47;;
1775;SDS011;885;42.626;23.200;2022-12-26T10:35:50;20.47;;;13.67;;
1775;SDS011;885;42.626;23.200;2022-12-26T10:38:19;20.67;;;15.73;;
1775;SDS011;885;42.626;23.200;2022-12-26T10:40:53;14.93;;;8.63;;
1775;SDS011;885;42.626;23.200;2022-12-26T10:43:27;7.43;;;5.30;;
1775;SDS011;885;42.626;23.200;2022-12-26T10:46:11;9.43;;;5.60;;
1775;SDS011;885;42.626;23.200;2022-12-26T10:48:48;10.60;;;6.57;;
1775;SDS011;885;42.626;23.200;2022-12-26T10:51:15;11.70;;;8.07;;
1775;SDS011;885;42.626;23.200;2022-12-26T10:53:42;24.87;;;15.80;;
1775;SDS011;885;42.626;23.200;2022-12-26T10:56:13;18.43;;;11.67;;
1775;SDS011;885;42.626;23.200;2022-12-26T10:58:41;9.50;;;5.90;;
1775;SDS011;885;42.626;23.200;2022-12-26T11:01:28;20.00;;;10.97;;
1775;SDS011;885;42.626;23.200;2022-12-26T11:04:01;37.70;;;20.17;;
1775;SDS011;885;42.626;23.200;2022-12-26T11:06:30;17.90;;;11.77;;
1775;SDS011;885;42.626;23.200;2022-12-26T11:08:59;11.90;;;6.97;;
1775;SDS011;885;42.626;23.200;2022-12-26T11:11:26;5.63;;;4.20;;
1775;SDS011;885;42.626;23.200;2022-12-26T11:14:20;4.70;;;4.07;;
1775;SDS011;885;42.626;23.200;2022-12-26T11:16:52;3.43;;;3.03;;
1775;SDS011;885;42.626;23.200;2022-12-26T11:19:26;6.50;;;5.77;;
1775;SDS011;885;42.626;23.200;2022-12-26T11:21:55;10.43;;;7.07;;
1775;SDS011;885;42.626;23.200;2022-12-26T11:24:45;2.90;;;2.40;;
1775;SDS011;885;42.626;23.200;2022-12-26T11:27:27;3.90;;;2.43;;
1775;SDS011;885;42.626;23.200;2022-12-26T11:29:59;4.60;;;3.97;;
1775;SDS011;885;42.626;23.200;2022-12-26T11:32:41;4.33;;;3.93;;
1775;SDS011;885;42.626;23.200;2022-12-26T11:35:16;5.57;;;4.40;;
1775;SDS011;885;42.626;23.200;2022-12-26T11:37:44;6.07;;;3.77;;
1775;SDS011;885;42.626;23.200;2022-12-26T11:40:19;3.27;;;2.73;;
1775;SDS011;885;42.626;23.200;2022-12-26T11:42:49;2.70;;;2.33;;
1775;SDS011;885;42.626;23.200;2022-12-26T11:45:19;2.30;;;1.60;;
1775;SDS011;885;42.626;23.200;2022-12-26T11:47:48;2.50;;;2.07;;
1775;SDS011;885;42.626;23.200;2022-12-26T11:50:17;4.40;;;2.53;;
1775;SDS011;885;42.626;23.200;2022-12-26T11:52:50;2.10;;;1.53;;
1775;SDS011;885;42.626;23.200;2022-12-26T11:55:24;2.50;;;1.90;;
1775;SDS011;885;42.626;23.200;2022-12-26T11:57:57;3.20;;;2.67;;
1775;SDS011;885;42.626;23.200;2022-12-26T12:00:26;6.13;;;3.73;;
1775;SDS011;885;42.626;23.200;2022-12-26T12:02:54;7.57;;;4.30;;
1775;SDS011;885;42.626;23.200;2022-12-26T12:05:33;3.40;;;2.67;;
1775;SDS011;885;42.626;23.200;2022-12-26T12:08:25;2.97;;;2.20;;
1775;SDS011;885;42.626;23.200;2022-12-26T12:11:08;4.03;;;3.40;;
1775;SDS011;885;42.626;23.200;2022-12-26T12:13:53;3.80;;;2.60;;
1775;SDS011;885;42.626;23.200;2022-12-26T12:16:33;3.30;;;3.00;;
1775;SDS011;885;42.626;23.200;2022-12-26T12:19:14;3.40;;;2.50;;
1775;SDS011;885;42.626;23.200;2022-12-26T12:21:55;3.57;;;2.27;;
1775;SDS011;885;42.626;23.200;2022-12-26T12:24:37;3.10;;;2.43;;
1775;SDS011;885;42.626;23.200;2022-12-26T12:27:15;4.77;;;2.63;;
1775;SDS011;885;42.626;23.200;2022-12-26T12:30:00;3.40;;;2.27;;
1775;SDS011;885;42.626;23.200;2022-12-26T12:32:40;2.30;;;1.97;;
1775;SDS011;885;42.626;23.200;2022-12-26T12:35:25;2.20;;;2.00;;
1775;SDS011;885;42.626;23.200;2022-12-26T12:38:05;4.00;;;2.00;;
1775;SDS011;885;42.626;23.200;2022-12-26T12:40:47;6.17;;;1.97;;
1775;SDS011;885;42.626;23.200;2022-12-26T12:43:22;8.53;;;6.37;;
1775;SDS011;885;42.626;23.200;2022-12-26T12:45:57;5.07;;;3.03;;
1775;SDS011;885;42.626;23.200;2022-12-26T12:48:41;3.07;;;2.73;;
1775;SDS011;885;42.626;23.200;2022-12-26T12:51:20;4.23;;;3.40;;
1775;SDS011;885;42.626;23.200;2022-12-26T12:54:14;4.83;;;3.53;;
1775;SDS011;885;42.626;23.200;2022-12-26T12:56:55;3.83;;;2.73;;
1775;SDS011;885;42.626;23.200;2022-12-26T12:59:32;5.37;;;3.73;;
1775;SDS011;885;42.626;23.200;2022-12-26T13:02:10;5.60;;;4.00;;
1775;SDS011;885;42.626;23.200;2022-12-26T13:04:43;5.27;;;4.57;;
1775;SDS011;885;42.626;23.200;2022-12-26T13:07:17;2.70;;;2.50;;
1775;SDS011;885;42.626;23.200;2022-12-26T13:09:50;3.80;;;2.77;;
1775;SDS011;885;42.626;23.200;2022-12-26T13:12:23;4.67;;;3.03;;
1775;SDS011;885;42.626;23.200;2022-12-26T13:14:53;14.00;;;10.40;;
1775;SDS011;885;42.626;23.200;2022-12-26T13:17:24;17.07;;;12.20;;
1775;SDS011;885;42.626;23.200;2022-12-26T13:19:57;19.50;;;13.53;;
1775;SDS011;885;42.626;23.200;2022-12-26T13:22:29;15.10;;;10.53;;
1775;SDS011;885;42.626;23.200;2022-12-26T13:25:16;10.73;;;9.10;;
1775;SDS011;885;42.626;23.200;2022-12-26T13:27:44;17.83;;;10.40;;
1775;SDS011;885;42.626;23.200;2022-12-26T13:30:13;6.20;;;5.00;;
1775;SDS011;885;42.626;23.200;2022-12-26T13:32:42;14.33;;;8.20;;
1775;SDS011;885;42.626;23.200;2022-12-26T13:35:25;22.03;;;15.67;;
1775;SDS011;885;42.626;23.200;2022-12-26T13:38:17;24.93;;;22.23;;
1775;SDS011;885;42.626;23.200;2022-12-26T13:40:46;15.63;;;10.80;;
1775;SDS011;885;42.626;23.200;2022-12-26T13:43:18;7.07;;;5.10;;
1775;SDS011;885;42.626;23.200;2022-12-26T13:46:07;4.73;;;3.77;;
1775;SDS011;885;42.626;23.200;2022-12-26T13:49:00;4.73;;;3.33;;
1775;SDS011;885;42.626;23.200;2022-12-26T13:54:25;3.67;;;2.70;;
1775;SDS011;885;42.626;23.200;2022-12-26T14:03:19;156.73;;;19.23;;
1775;SDS011;885;42.626;23.200;2022-12-26T14:06:11;8.13;;;3.90;;
1775;SDS011;885;42.626;23.200;2022-12-26T14:09:12;202.87;;;23.57;;
1775;SDS011;885;42.626;23.200;2022-12-26T14:12:08;305.37;;;33.90;;
1775;SDS011;885;42.626;23.200;2022-12-26T14:14:53;5.17;;;3.50;;
1775;SDS011;885;42.626;23.200;2022-12-26T14:17:33;6.30;;;4.30;;
1775;SDS011;885;42.626;23.200;2022-12-26T14:20:11;5.60;;;4.00;;
1775;SDS011;885;42.626;23.200;2022-12-26T14:23:00;7.30;;;6.60;;
1775;SDS011;885;42.626;23.200;2022-12-26T14:25:34;8.43;;;5.80;;
1775;SDS011;885;42.626;23.200;2022-12-26T14:28:16;5.30;;;3.70;;
1775;SDS011;885;42.626;23.200;2022-12-26T14:30:51;5.60;;;3.20;;
1775;SDS011;885;42.626;23.200;2022-12-26T14:33:30;4.03;;;3.60;;
1775;SDS011;885;42.626;23.200;2022-12-26T14:36:07;3.90;;;2.80;;
1775;SDS011;885;42.626;23.200;2022-12-26T14:38:45;3.00;;;2.70;;
1775;SDS011;885;42.626;23.200;2022-12-26T14:41:20;3.97;;;2.70;;
1775;SDS011;885;42.626;23.200;2022-12-26T14:44:09;3.80;;;3.13;;
1775;SDS011;885;42.626;23.200;2022-12-26T14:46:56;3.33;;;2.87;;
1775;SDS011;885;42.626;23.200;2022-12-26T14:49:36;4.60;;;2.70;;
1775;SDS011;885;42.626;23.200;2022-12-26T14:54:58;2.60;;;2.10;;
1775;SDS011;885;42.626;23.200;2022-12-26T15:06:34;4.63;;;2.47;;
1775;SDS011;885;42.626;23.200;2022-12-26T15:09:24;4.13;;;2.77;;
1775;SDS011;885;42.626;23.200;2022-12-26T15:12:14;3.00;;;2.13;;
1775;SDS011;885;42.626;23.200;2022-12-26T15:14:58;7.80;;;2.07;;
1775;SDS011;885;42.626;23.200;2022-12-26T15:17:46;2.70;;;1.60;;
1775;SDS011;885;42.626;23.200;2022-12-26T15:20:39;1.50;;;1.30;;
1775;SDS011;885;42.626;23.200;2022-12-26T15:23:39;1.37;;;1.27;;
1775;SDS011;885;42.626;23.200;2022-12-26T15:26:33;1.50;;;1.40;;
1775;SDS011;885;42.626;23.200;2022-12-26T15:29:35;3.50;;;1.80;;
1775;SDS011;885;42.626;23.200;2022-12-26T15:32:13;2.50;;;1.90;;
1775;SDS011;885;42.626;23.200;2022-12-26T15:34:47;1.70;;;1.57;;
1775;SDS011;885;42.626;23.200;2022-12-26T15:37:33;1.97;;;1.40;;
1775;SDS011;885;42.626;23.200;2022-12-26T15:40:12;2.10;;;1.70;;
1775;SDS011;885;42.626;23.200;2022-12-26T15:42:46;2.87;;;2.00;;
1775;SDS011;885;42.626;23.200;2022-12-26T15:45:32;1.97;;;1.70;;
1775;SDS011;885;42.626;23.200;2022-12-26T15:48:10;1.73;;;1.50;;
1775;SDS011;885;42.626;23.200;2022-12-26T15:50:52;2.23;;;1.70;;
1775;SDS011;885;42.626;23.200;2022-12-26T15:53:28;2.43;;;1.60;;
1775;SDS011;885;42.626;23.200;2022-12-26T15:56:12;1.77;;;1.43;;
1775;SDS011;885;42.626;23.200;2022-12-26T15:58:57;3.77;;;2.13;;
1775;SDS011;885;42.626;23.200;2022-12-26T16:01:37;4.83;;;3.20;;
1775;SDS011;885;42.626;23.200;2022-12-26T16:04:05;6.23;;;3.87;;
1775;SDS011;885;42.626;23.200;2022-12-26T16:06:47;6.00;;;3.93;;
1775;SDS011;885;42.626;23.200;2022-12-26T16:09:31;5.73;;;4.33;;
1775;SDS011;885;42.626;23.200;2022-12-26T16:12:18;3.80;;;3.27;;
1775;SDS011;885;42.626;23.200;2022-12-26T16:14:47;2.93;;;2.30;;
1775;SDS011;885;42.626;23.200;2022-12-26T16:17:16;3.53;;;2.60;;
1775;SDS011;885;42.626;23.200;2022-12-26T16:19:46;2.97;;;2.37;;
1775;SDS011;885;42.626;23.200;2022-12-26T16:22:15;1.73;;;1.47;;
1775;SDS011;885;42.626;23.200;2022-12-26T16:25:05;6.07;;;3.63;;